createdAt,value
2018-04-07T00:00:46.396Z,100307.27
2018-04-07T00:03:13.869Z,100305.39
2018-04-07T00:05:41.322Z,100309.55
2018-04-07T00:08:08.784Z,100313.56
2018-04-07T00:10:36.251Z,100312.64
2018-04-07T00:13:04.017Z,100310.08
2018-04-07T00:15:31.514Z,100305.44
2018-04-07T00:17:58.949Z,100298.98
2018-04-07T00:20:26.421Z,100294.48
2018-04-07T00:22:53.884Z,100295.41
2018-04-07T00:25:21.326Z,100296.31
2018-04-07T00:27:48.809Z,100298.38
2018-04-07T00:30:16.281Z,100288.31
2018-04-07T00:32:43.801Z,100280.37
2018-04-07T00:35:11.373Z,100279.39
2018-04-07T00:37:38.821Z,100269.55
2018-04-07T00:40:06.257Z,100265.03
2018-04-07T00:42:33.730Z,100261.52
2018-04-07T00:45:01.174Z,100252.50
2018-04-07T00:47:28.905Z,100249.86
2018-04-07T00:49:56.398Z,100242.88
2018-04-07T00:52:23.842Z,100235.79
2018-04-07T00:54:51.306Z,100228.78
2018-04-07T00:57:18.801Z,100226.97
2018-04-07T00:59:46.275Z,100232.36
2018-04-07T01:02:13.716Z,100239.38
2018-04-07T01:04:41.177Z,100250.29
2018-04-07T01:07:08.618Z,100244.64
2018-04-07T01:09:36.060Z,100246.09
2018-04-07T01:12:03.534Z,100251.41
2018-04-07T01:14:30.990Z,100251.22
2018-04-07T01:16:58.451Z,100241.83
2018-04-07T01:19:25.909Z,100252.81
2018-04-07T01:21:53.350Z,100248.19
2018-04-07T01:24:20.789Z,100248.20
2018-04-07T01:26:48.250Z,100248.13
2018-04-07T01:29:15.712Z,100246.95
2018-04-07T01:31:43.161Z,100250.19
2018-04-07T01:34:10.647Z,100241.44
2018-04-07T01:36:38.116Z,100241.16
2018-04-07T01:39:05.589Z,100238.05
2018-04-07T01:41:33.301Z,100240.26
2018-04-07T01:44:00.755Z,100236.91
2018-04-07T01:46:28.203Z,100235.08
2018-04-07T01:48:55.677Z,100239.48
2018-04-07T01:51:23.125Z,100244.63
2018-04-07T01:53:50.565Z,100242.98
2018-04-07T01:56:18.079Z,100243.87
2018-04-07T01:58:45.522Z,100244.27
2018-04-07T02:01:12.959Z,100246.64
2018-04-07T02:03:40.428Z,100251.24
2018-04-07T02:06:07.886Z,100254.83
2018-04-07T02:08:35.324Z,100260.58
2018-04-07T02:11:03.099Z,100258.41
2018-04-07T02:13:30.570Z,100258.03
2018-04-07T02:15:58.018Z,100265.52
2018-04-07T02:18:25.818Z,100257.19
2018-04-07T02:20:53.267Z,100258.61
2018-04-07T02:23:20.721Z,100252.50
2018-04-07T02:25:48.390Z,100244.17
2018-04-07T02:28:15.843Z,100249.36
2018-04-07T02:30:43.289Z,100238.85
2018-04-07T02:33:10.876Z,100231.84
2018-04-07T02:35:38.318Z,100225.17
2018-04-07T02:38:05.766Z,100227.34
2018-04-07T02:40:33.241Z,100229.48
2018-04-07T02:43:00.677Z,100220.30
2018-04-07T02:45:28.275Z,100221.31
2018-04-07T02:47:55.772Z,100221.69
2018-04-07T02:50:23.245Z,100219.98
2018-04-07T02:52:50.683Z,100211.69
2018-04-07T02:55:18.125Z,100212.67
2018-04-07T02:57:45.680Z,100221.38
2018-04-07T03:00:13.139Z,100216.13
2018-04-07T03:02:40.597Z,100217.48
2018-04-07T03:05:08.054Z,100227.13
2018-04-07T03:07:35.497Z,100228.45
2018-04-07T03:10:03.134Z,100235.00
2018-04-07T03:12:30.709Z,100237.64
2018-04-07T03:14:58.177Z,100233.28
2018-04-07T03:17:25.668Z,100235.02
2018-04-07T03:19:53.105Z,100238.09
2018-04-07T03:22:20.769Z,100235.05
2018-04-07T03:24:48.222Z,100235.45
2018-04-07T03:27:15.661Z,100225.84
2018-04-07T03:29:43.134Z,100229.77
2018-04-07T03:32:10.608Z,100231.95
2018-04-07T03:34:38.086Z,100227.58
2018-04-07T03:37:05.522Z,100224.50
2018-04-07T03:39:32.967Z,100226.27
2018-04-07T03:42:00.445Z,100231.95
2018-04-07T03:44:27.881Z,100231.08
2018-04-07T03:46:55.432Z,100235.02
2018-04-07T03:49:22.901Z,100232.42
2018-04-07T03:51:50.369Z,100233.73
2018-04-07T03:54:17.846Z,100237.66
2018-04-07T03:56:45.285Z,100241.59
2018-04-07T03:59:13.023Z,100240.70
2018-04-07T04:01:40.473Z,100243.75
2018-04-07T04:04:07.914Z,100240.72
2018-04-07T04:06:35.371Z,100246.83
2018-04-07T04:09:02.810Z,100241.59
2018-04-07T04:11:30.530Z,100241.16
2018-04-07T04:13:57.974Z,100242.90
2018-04-07T04:16:25.411Z,100243.75
2018-04-07T04:18:52.873Z,100250.76
2018-04-07T04:21:20.334Z,100244.63
2018-04-07T04:23:47.857Z,100237.21
2018-04-07T04:26:15.305Z,100242.45
2018-04-07T04:28:42.756Z,100239.80
2018-04-07T04:31:10.215Z,100245.95
2018-04-07T04:33:37.671Z,100250.76
2018-04-07T04:36:05.392Z,100253.77
2018-04-07T04:38:32.830Z,100257.30
2018-04-07T04:41:00.272Z,100252.89
2018-04-07T04:43:27.774Z,100255.55
2018-04-07T04:45:55.233Z,100253.33
2018-04-07T04:48:22.713Z,100258.97
2018-04-07T04:50:50.149Z,100258.58
2018-04-07T04:53:17.628Z,100249.35
2018-04-07T04:55:45.133Z,100255.03
2018-04-07T04:58:12.577Z,100252.41
2018-04-07T05:00:40.084Z,100254.12
2018-04-07T05:03:07.623Z,100250.27
2018-04-07T05:05:35.057Z,100250.73
2018-04-07T05:08:02.515Z,100253.29
2018-04-07T05:10:29.985Z,100253.28
2018-04-07T05:12:57.498Z,100263.73
2018-04-07T05:15:24.937Z,100254.59
2018-04-07T05:17:52.401Z,100252.89
2018-04-07T05:20:19.876Z,100251.65
2018-04-07T05:22:47.386Z,100252.54
2018-04-07T05:25:14.849Z,100256.82
2018-04-07T05:27:42.293Z,100257.20
2018-04-07T05:30:09.788Z,100255.42
2018-04-07T05:32:37.327Z,100250.11
2018-04-07T05:35:04.781Z,100248.98
2018-04-07T05:37:32.445Z,100252.29
2018-04-07T05:39:59.913Z,100252.73
2018-04-07T05:42:27.376Z,100256.43
2018-04-07T05:44:54.856Z,100256.02
2018-04-07T05:47:22.316Z,100257.53
2018-04-07T05:49:49.885Z,100254.80
2018-04-07T05:52:17.528Z,100255.79
2018-04-07T05:54:45.018Z,100256.30
2018-04-07T05:57:12.471Z,100254.52
2018-04-07T05:59:39.937Z,100259.05
2018-04-07T06:02:07.573Z,100257.84
2018-04-07T06:04:35.076Z,100258.61
2018-04-07T06:07:02.531Z,100258.53
2018-04-07T06:09:30.009Z,100262.08
2018-04-07T06:11:57.461Z,100274.05
2018-04-07T06:14:25.317Z,100270.44
2018-04-07T06:16:52.781Z,100268.17
2018-04-07T06:19:20.268Z,100262.46
2018-04-07T06:21:47.749Z,100262.00
2018-04-07T06:24:15.185Z,100261.00
2018-04-07T06:26:42.761Z,100263.94
2018-04-07T06:29:10.221Z,100259.15
2018-04-07T06:31:37.661Z,100259.20
2018-04-07T06:34:05.128Z,100265.71
2018-04-07T06:36:32.597Z,100265.56
2018-04-07T06:39:00.094Z,100264.23
2018-04-07T06:41:27.556Z,100263.80
2018-04-07T06:43:55.004Z,100263.64
2018-04-07T06:46:22.484Z,100259.28
2018-04-07T06:48:49.938Z,100255.43
2018-04-07T06:51:17.553Z,100251.11
2018-04-07T06:53:45.001Z,100250.09
2018-04-07T06:56:12.439Z,100250.97
2018-04-07T06:58:39.913Z,100246.96
2018-04-07T07:01:07.366Z,100247.88
2018-04-07T07:03:34.861Z,100242.08
2018-04-07T07:06:02.387Z,100242.91
2018-04-07T07:08:29.832Z,100248.25
2018-04-07T07:10:57.372Z,100254.64
2018-04-07T07:13:24.813Z,100249.64
2018-04-07T07:15:52.395Z,100257.16
2018-04-07T07:18:19.872Z,100247.63
2018-04-07T07:20:47.325Z,100249.31
2018-04-07T07:23:14.832Z,100243.01
2018-04-07T07:25:42.274Z,100248.41
2018-04-07T07:28:10.109Z,100238.70
2018-04-07T07:30:37.563Z,100242.07
2018-04-07T07:33:05.017Z,100242.19
2018-04-07T07:35:32.488Z,100243.41
2018-04-07T07:37:59.933Z,100249.85
2018-04-07T07:40:27.557Z,100248.24
2018-04-07T07:42:54.993Z,100238.40
2018-04-07T07:45:22.443Z,100247.79
2018-04-07T07:47:49.913Z,100250.97
2018-04-07T07:50:17.393Z,100247.84
2018-04-07T07:52:44.882Z,100249.92
2018-04-07T07:55:12.318Z,100239.11
2018-04-07T07:57:39.758Z,100239.19
2018-04-07T08:00:07.249Z,100232.66
2018-04-07T08:02:34.697Z,100235.64
2018-04-07T08:05:02.366Z,100233.77
2018-04-07T08:07:29.838Z,100232.44
2018-04-07T08:09:57.285Z,100239.41
2018-04-07T08:12:24.823Z,100242.64
2018-04-07T08:14:52.269Z,100237.67
2018-04-07T08:17:19.805Z,100234.34
2018-04-07T08:19:47.251Z,100233.29
2018-04-07T08:22:14.706Z,100233.03
2018-04-07T08:24:42.178Z,100225.19
2018-04-07T08:27:09.645Z,100227.53
2018-04-07T08:29:37.372Z,100223.45
2018-04-07T08:32:04.879Z,100224.88
2018-04-07T08:34:32.317Z,100230.05
2018-04-07T08:36:59.850Z,100233.75
2018-04-07T08:39:27.366Z,100240.52
2018-04-07T08:41:54.803Z,100240.41
2018-04-07T08:44:22.249Z,100242.94
2018-04-07T08:46:49.722Z,100241.47
2018-04-07T08:49:17.200Z,100237.28
2018-04-07T08:51:44.669Z,100235.70
2018-04-07T08:54:12.573Z,100227.51
2018-04-07T08:56:40.017Z,100219.45
2018-04-07T08:59:07.477Z,100224.58
2018-04-07T09:01:34.986Z,100218.77
2018-04-07T09:04:02.429Z,100220.37
2018-04-07T09:06:30.126Z,100215.77
2018-04-07T09:08:57.577Z,100211.04
2018-04-07T09:11:25.044Z,100209.73
2018-04-07T09:13:52.520Z,100207.90
2018-04-07T09:16:19.975Z,100212.94
2018-04-07T09:18:47.599Z,100209.06
2018-04-07T09:21:15.053Z,100203.88
2018-04-07T09:23:42.557Z,100212.75
2018-04-07T09:26:10.073Z,100205.11
2018-04-07T09:28:37.517Z,100205.03
2018-04-07T09:31:10.552Z,100201.38
2018-04-07T09:33:37.998Z,100192.55
2018-04-07T09:36:05.453Z,100196.64
2018-04-07T09:38:32.933Z,100187.88
2018-04-07T09:41:00.396Z,100190.21
2018-04-07T09:43:28.105Z,100192.47
2018-04-07T09:45:55.579Z,100197.50
2018-04-07T09:48:23.038Z,100189.10
2018-04-07T09:50:50.539Z,100187.73
2018-04-07T09:53:18.012Z,100186.41
2018-04-07T09:55:45.738Z,100174.11
2018-04-07T09:58:13.215Z,100176.68
2018-04-07T10:00:47.676Z,100172.34
2018-04-07T10:03:20.755Z,100174.63
2018-04-07T10:05:48.437Z,100178.10
2018-04-07T10:08:15.893Z,100179.79
2018-04-07T10:10:43.341Z,100176.69
2018-04-07T10:13:10.837Z,100175.64
2018-04-07T10:15:38.294Z,100169.88
2018-04-07T10:18:05.789Z,100161.67
2018-04-07T10:20:33.241Z,100161.96
2018-04-07T10:23:00.708Z,100162.58
2018-04-07T10:25:28.201Z,100155.69
2018-04-07T10:27:55.688Z,100153.24
2018-04-07T10:30:23.349Z,100150.16
2018-04-07T10:32:50.800Z,100154.72
2018-04-07T10:35:18.255Z,100144.05
2018-04-07T10:37:45.745Z,100142.19
2018-04-07T10:40:13.197Z,100147.63
2018-04-07T10:42:40.894Z,100142.25
2018-04-07T10:45:08.368Z,100142.44
2018-04-07T10:47:35.826Z,100139.41
2018-04-07T10:50:03.309Z,100133.11
2018-04-07T10:52:31.144Z,100127.28
2018-04-07T10:54:58.963Z,100130.33
2018-04-07T10:57:26.429Z,100122.34
2018-04-07T10:59:54.017Z,100116.61
2018-04-07T11:02:21.484Z,100112.13
2018-04-07T11:04:48.960Z,100108.84
2018-04-07T11:07:16.449Z,100104.41
2018-04-07T11:09:43.901Z,100103.00
2018-04-07T11:12:11.360Z,100096.52
2018-04-07T11:14:38.870Z,100088.91
2018-04-07T11:17:06.325Z,100076.02
2018-04-07T11:19:33.821Z,100081.30
2018-04-07T11:22:01.282Z,100086.67
2018-04-07T11:24:28.733Z,100078.61
2018-04-07T11:26:56.240Z,100072.34
2018-04-07T11:29:23.697Z,100059.39
2018-04-07T11:31:51.514Z,100061.30
2018-04-07T11:34:18.993Z,100049.45
2018-04-07T11:36:46.447Z,100052.20
2018-04-07T11:39:14.789Z,100050.64
2018-04-07T11:41:42.248Z,100046.64
2018-04-07T11:44:10.004Z,100047.65
2018-04-07T11:46:37.460Z,100036.81
2018-04-07T11:49:12.447Z,100036.02
2018-04-07T11:51:40.372Z,100043.95
2018-04-07T11:54:07.983Z,100031.38
2018-04-07T11:56:35.474Z,100028.27
2018-04-07T11:59:02.941Z,100029.80
2018-04-07T12:01:30.703Z,100032.23
2018-04-07T12:03:58.173Z,100025.19
2018-04-07T12:06:28.610Z,100019.13
2018-04-07T12:08:56.326Z,100016.37
2018-04-07T12:11:23.802Z,100013.69
2018-04-07T12:13:51.364Z,100016.45
2018-04-07T12:16:18.823Z,100005.34
2018-04-07T12:18:46.300Z,100002.48
2018-04-07T12:21:14.328Z,100001.56
2018-04-07T12:23:41.786Z,100006.53
2018-04-07T12:26:09.310Z,100004.03
2018-04-07T12:28:36.780Z,99997.34
2018-04-07T12:31:04.249Z,99999.66
2018-04-07T12:33:31.725Z,99995.09
2018-04-07T12:35:59.191Z,99990.50
2018-04-07T12:38:26.709Z,99985.43
2018-04-07T12:40:54.172Z,99982.02
2018-04-07T12:43:21.637Z,99979.45
2018-04-07T12:45:49.115Z,99971.32
2018-04-07T12:48:16.560Z,99976.27
2018-04-07T12:50:44.174Z,99978.63
2018-04-07T12:53:11.642Z,99970.47
2018-04-07T12:55:39.123Z,99975.10
2018-04-07T12:58:06.683Z,99972.91
2018-04-07T13:00:34.157Z,99963.20
2018-04-07T13:03:01.804Z,99952.91
2018-04-07T13:05:29.297Z,99949.78
2018-04-07T13:07:56.819Z,99958.31
2018-04-07T13:10:24.298Z,99948.48
2018-04-07T13:12:51.752Z,99943.09
2018-04-07T13:15:19.581Z,99937.38
2018-04-07T13:17:47.494Z,99935.05
2018-04-07T13:20:14.953Z,99939.48
2018-04-07T13:22:42.438Z,99930.98
2018-04-07T13:25:11.596Z,99919.92
2018-04-07T13:27:40.874Z,99912.23
2018-04-07T13:30:11.201Z,99911.63
2018-04-07T13:32:38.986Z,99908.00
2018-04-07T13:35:06.526Z,99900.45
2018-04-07T13:37:33.978Z,99902.13
2018-04-07T13:40:02.579Z,99901.30
2018-04-07T13:42:30.170Z,99896.91
2018-04-07T13:44:57.649Z,99884.91
2018-04-07T13:47:25.101Z,99879.58
2018-04-07T13:49:52.570Z,99875.88
2018-04-07T13:52:20.064Z,99870.41
2018-04-07T13:54:47.515Z,99861.61
2018-04-07T13:57:15.289Z,99868.57
2018-04-07T13:59:42.737Z,99865.26
2018-04-07T14:02:10.193Z,99860.70
2018-04-07T14:04:38.963Z,99865.97
2018-04-07T14:07:06.425Z,99860.47
2018-04-07T14:09:34.057Z,99869.47
2018-04-07T14:12:03.154Z,99855.69
2018-04-07T14:14:31.752Z,99849.94
2018-04-07T14:16:59.975Z,99843.73
2018-04-07T14:19:29.719Z,99837.50
2018-04-07T14:21:57.645Z,99836.38
2018-04-07T14:24:25.101Z,99827.45
2018-04-07T14:26:52.569Z,99822.24
2018-04-07T14:29:20.040Z,99823.73
2018-04-07T14:31:47.496Z,99824.42
2018-04-07T14:34:15.995Z,99815.39
2018-04-07T14:36:47.410Z,99811.40
2018-04-07T14:39:15.077Z,99806.23
2018-04-07T14:41:42.549Z,99811.55
2018-04-07T14:44:10.045Z,99804.47
2018-04-07T14:46:37.525Z,99805.23
2018-04-07T14:49:04.989Z,99801.39
2018-04-07T14:51:32.455Z,99804.38
2018-04-07T14:53:59.941Z,99804.20
2018-04-07T14:56:27.427Z,99802.41
2018-04-07T14:58:54.880Z,99793.33
2018-04-07T15:01:22.357Z,99795.07
2018-04-07T15:03:49.822Z,99789.92
2018-04-07T15:06:17.275Z,99781.67
2018-04-07T15:08:44.885Z,99783.52
2018-04-07T15:11:12.347Z,99780.34
2018-04-07T15:13:39.801Z,99782.23
2018-04-07T15:16:07.404Z,99780.25
2018-04-07T15:18:34.870Z,99788.08
2018-04-07T15:21:02.358Z,99784.81
2018-04-07T15:23:29.883Z,99782.03
2018-04-07T15:25:57.392Z,99775.53
2018-04-07T15:28:25.401Z,99774.84
2018-04-07T15:30:52.857Z,99772.53
2018-04-07T15:33:20.360Z,99776.44
2018-04-07T15:35:47.919Z,99770.39
2018-04-07T15:38:15.389Z,99771.11
2018-04-07T15:40:43.143Z,99769.28
2018-04-07T15:43:10.613Z,99761.94
2018-04-07T15:45:38.111Z,99761.89
2018-04-07T15:48:05.597Z,99758.13
2018-04-07T15:50:33.348Z,99757.86
2018-04-07T15:53:01.196Z,99751.69
2018-04-07T15:55:28.674Z,99757.41
2018-04-07T15:57:56.181Z,99752.66
2018-04-07T16:00:23.652Z,99756.64
2018-04-07T16:02:51.113Z,99760.84
2018-04-07T16:05:18.665Z,99752.78
2018-04-07T16:07:46.369Z,99747.22
2018-04-07T16:10:14.077Z,99748.30
2018-04-07T16:12:41.557Z,99742.65
2018-04-07T16:15:09.065Z,99737.23
2018-04-07T16:17:36.901Z,99741.91
2018-04-07T16:20:04.362Z,99739.64
2018-04-07T16:22:31.824Z,99728.91
2018-04-07T16:24:59.307Z,99728.47
2018-04-07T16:27:27.997Z,99723.35
2018-04-07T16:29:56.256Z,99722.70
2018-04-07T16:32:23.719Z,99723.27
2018-04-07T16:34:51.184Z,99721.98
2018-04-07T16:37:18.673Z,99726.28
2018-04-07T16:39:46.132Z,99724.69
2018-04-07T16:42:13.795Z,99724.68
2018-04-07T16:44:41.245Z,99721.19
2018-04-07T16:47:08.711Z,99716.33
2018-04-07T16:49:36.221Z,99713.23
2018-04-07T16:52:03.691Z,99708.75
2018-04-07T16:54:31.198Z,99705.95
2018-04-07T16:56:58.649Z,99716.92
2018-04-07T16:59:26.093Z,99713.75
2018-04-07T17:01:53.564Z,99711.55
2018-04-07T17:04:21.033Z,99707.89
2018-04-07T17:06:48.525Z,99707.00
2018-04-07T17:09:15.973Z,99705.98
2018-04-07T17:11:43.427Z,99706.34
2018-04-07T17:14:10.893Z,99703.73
2018-04-07T17:16:38.344Z,99702.34
2018-04-07T17:19:05.988Z,99697.00
2018-04-07T17:21:33.450Z,99701.27
2018-04-07T17:24:00.956Z,99700.34
2018-04-07T17:26:28.393Z,99699.62
2018-04-07T17:28:55.837Z,99700.67
2018-04-07T17:31:23.313Z,99702.39
2018-04-07T17:33:50.764Z,99697.30
2018-04-07T17:36:18.232Z,99710.98
2018-04-07T17:38:45.721Z,99710.72
2018-04-07T17:41:13.170Z,99712.09
2018-04-07T17:43:40.643Z,99712.53
2018-04-07T17:46:08.090Z,99711.99
2018-04-07T17:48:35.543Z,99708.76
2018-04-07T17:51:03.906Z,99712.33
2018-04-07T17:53:31.349Z,99719.23
2018-04-07T17:55:58.919Z,99718.79
2018-04-07T17:58:26.386Z,99714.89
2018-04-07T18:00:53.834Z,99716.16
2018-04-07T18:03:21.302Z,99717.27
2018-04-07T18:05:48.753Z,99715.50
2018-04-07T18:08:16.616Z,99715.83
2018-04-07T18:10:44.057Z,99712.23
2018-04-07T18:13:11.518Z,99713.47
2018-04-07T18:15:38.994Z,99717.26
2018-04-07T18:18:06.449Z,99718.27
2018-04-07T18:20:34.105Z,99718.56
2018-04-07T18:23:01.566Z,99725.56
2018-04-07T18:25:29.017Z,99727.86
2018-04-07T18:27:56.514Z,99729.59
2018-04-07T18:30:23.961Z,99731.42
2018-04-07T18:32:51.522Z,99730.49
2018-04-07T18:35:18.966Z,99732.00
2018-04-07T18:37:46.422Z,99733.38
2018-04-07T18:40:13.912Z,99722.42
2018-04-07T18:42:41.389Z,99725.20
2018-04-07T18:45:08.859Z,99727.30
2018-04-07T18:47:36.334Z,99728.38
2018-04-07T18:50:04.136Z,99735.52
2018-04-07T18:52:31.617Z,99739.66
2018-04-07T18:54:59.128Z,99739.88
2018-04-07T18:57:26.643Z,99743.80
2018-04-07T18:59:54.131Z,99750.56
2018-04-07T19:02:21.939Z,99746.25
2018-04-07T19:04:49.430Z,99751.61
2018-04-07T19:07:16.954Z,99752.28
2018-04-07T19:09:44.536Z,99755.73
2018-04-07T19:12:12.033Z,99761.58
2018-04-07T19:14:39.949Z,99763.17
2018-04-07T19:17:07.463Z,99764.05
2018-04-07T19:19:34.967Z,99765.15
2018-04-07T19:22:02.477Z,99769.07
2018-04-07T19:24:31.583Z,99770.81
2018-04-07T19:27:08.498Z,99767.83
2018-04-07T19:29:36.314Z,99771.38
2018-04-07T19:32:03.813Z,99775.44
2018-04-07T19:34:31.281Z,99777.49
2018-04-07T19:36:58.789Z,99783.34
2018-04-07T19:39:26.303Z,99782.75
2018-04-07T19:41:53.827Z,99781.42
2018-04-07T19:44:21.390Z,99787.02
2018-04-07T19:46:48.882Z,99787.27
2018-04-07T19:49:16.347Z,99791.06
2018-04-07T19:51:44.094Z,99795.34
2018-04-07T19:54:11.590Z,99798.54
2018-04-07T19:56:39.069Z,99794.30
2018-04-07T19:59:06.537Z,99799.80
2018-04-07T20:01:33.981Z,99791.36
2018-04-07T20:04:01.766Z,99793.25
2018-04-07T20:06:29.269Z,99787.05
2018-04-07T20:08:56.772Z,99789.01
2018-04-07T20:11:24.301Z,99785.63
2018-04-07T20:13:51.763Z,99789.03
2018-04-07T20:16:19.258Z,99790.66
2018-04-07T20:18:46.740Z,99789.80
2018-04-07T20:21:14.428Z,99798.14
2018-04-07T20:23:41.937Z,99791.34
2018-04-07T20:26:09.426Z,99796.78
2018-04-07T20:28:36.905Z,99796.81
2018-04-07T20:31:04.370Z,99791.66
2018-04-07T20:33:31.891Z,99798.03
2018-04-07T20:35:59.399Z,99801.60
2018-04-07T20:38:26.878Z,99802.33
2018-04-07T20:40:56.279Z,99795.75
2018-04-07T20:43:23.757Z,99802.98
2018-04-07T20:45:51.439Z,99795.82
2018-04-07T20:48:18.935Z,99790.09
2018-04-07T20:50:46.632Z,99804.91
2018-04-07T20:53:14.106Z,99801.23
2018-04-07T20:55:41.581Z,99800.15
2018-04-07T20:58:09.066Z,99801.36
2018-04-07T21:00:36.534Z,99797.66
2018-04-07T21:03:04.182Z,99804.49
2018-04-07T21:05:31.633Z,99803.98
2018-04-07T21:07:59.083Z,99802.98
2018-04-07T21:10:26.546Z,99800.91
2018-04-07T21:12:54.014Z,99804.02
2018-04-07T21:15:21.649Z,99807.56
2018-04-07T21:17:49.124Z,99808.23
2018-04-07T21:20:16.591Z,99798.06
2018-04-07T21:22:44.087Z,99806.59
2018-04-07T21:25:11.559Z,99806.78
2018-04-07T21:27:39.014Z,99809.11
2018-04-07T21:30:06.493Z,99804.66
2018-04-07T21:32:33.945Z,99812.50
2018-04-07T21:35:01.409Z,99810.53
2018-04-07T21:37:28.908Z,99805.15
2018-04-07T21:39:56.356Z,99810.22
2018-04-07T21:42:23.845Z,99804.69
2018-04-07T21:44:51.353Z,99809.66
2018-04-07T21:47:18.821Z,99807.80
2018-04-07T21:49:46.517Z,99815.09
2018-04-07T21:52:14.229Z,99809.60
2018-04-07T21:54:41.691Z,99814.39
2018-04-07T21:57:09.189Z,99814.42
2018-04-07T21:59:36.698Z,99806.53
2018-04-07T22:02:04.870Z,99800.28
2018-04-07T22:04:32.321Z,99806.39
2018-04-07T22:07:00.244Z,99801.45
2018-04-07T22:09:27.699Z,99798.31
2018-04-07T22:11:55.225Z,99800.55
2018-04-07T22:14:22.957Z,99802.80
2018-04-07T22:16:50.410Z,99797.16
2018-04-07T22:19:17.877Z,99806.91
2018-04-07T22:21:45.490Z,99805.36
2018-04-07T22:24:12.992Z,99810.76
2018-04-07T22:26:40.465Z,99810.02
2018-04-07T22:29:09.913Z,99815.09
2018-04-07T22:31:37.389Z,99814.28
2018-04-07T22:34:04.846Z,99814.80
2018-04-07T22:36:32.549Z,99814.22
2018-04-07T22:39:00.014Z,99809.50
2018-04-07T22:41:27.500Z,99806.86
2018-04-07T22:43:54.978Z,99802.66
2018-04-07T22:46:22.421Z,99803.34
2018-04-07T22:48:49.925Z,99799.80
2018-04-07T22:51:17.449Z,99795.35
2018-04-07T22:53:44.863Z,99797.19
2018-04-07T22:56:12.330Z,99798.14
2018-04-07T22:58:39.845Z,99797.73
2018-04-07T23:01:07.654Z,99798.48
2018-04-07T23:03:35.093Z,99796.28
2018-04-07T23:06:02.552Z,99795.53
2018-04-07T23:08:30.021Z,99799.48
2018-04-07T23:10:57.482Z,99798.06
2018-04-07T23:13:24.967Z,99797.14
2018-04-07T23:15:52.426Z,99799.36
2018-04-07T23:18:19.904Z,99803.70
2018-04-07T23:20:47.378Z,99802.30
2018-04-07T23:23:14.837Z,99802.34
2018-04-07T23:25:42.644Z,99796.69
2018-04-07T23:28:10.166Z,99802.34
2018-04-07T23:30:37.637Z,99802.87
2018-04-07T23:33:05.108Z,99799.41
2018-04-07T23:35:32.565Z,99804.62
2018-04-07T23:38:00.058Z,99796.51
2018-04-07T23:40:27.505Z,99795.01
2018-04-07T23:42:54.974Z,99792.16
2018-04-07T23:45:22.438Z,99788.98
2018-04-07T23:47:49.930Z,99781.45
2018-04-07T23:50:17.424Z,99783.06
2018-04-07T23:52:44.869Z,99781.94
2018-04-07T23:55:12.321Z,99776.48
2018-04-07T23:57:39.793Z,99773.25
